sensor_id;sensor_type;location;lat;lon;timestamp;P1;durP1;ratioP1;P2;durP2;ratioP2
29432;SDS011;16405;53.964;13.448;2022-11-27T00:01:31;1999.90;;;999.90;;
29432;SDS011;16405;53.964;13.448;2022-11-27T00:03:59;1999.90;;;999.90;;
29432;SDS011;16405;53.964;13.448;2022-11-27T00:06:26;1999.90;;;999.90;;
29432;SDS011;16405;53.964;13.448;2022-11-27T00:09:04;1999.90;;;999.90;;
29432;SDS011;16405;53.964;13.448;2022-11-27T00:11:41;1999.90;;;999.90;;
29432;SDS011;16405;53.964;13.448;2022-11-27T00:14:13;1999.90;;;999.90;;
29432;SDS011;16405;53.964;13.448;2022-11-27T00:16:40;1999.90;;;999.90;;
29432;SDS011;16405;53.964;13.448;2022-11-27T00:19:07;1999.90;;;999.90;;
29432;SDS011;16405;53.964;13.448;2022-11-27T00:21:35;1999.90;;;999.90;;
29432;SDS011;16405;53.964;13.448;2022-11-27T00:24:12;1999.90;;;999.90;;
29432;SDS011;16405;53.964;13.448;2022-11-27T00:26:38;1999.90;;;999.90;;
29432;SDS011;16405;53.964;13.448;2022-11-27T00:29:05;1999.90;;;999.90;;
29432;SDS011;16405;53.964;13.448;2022-11-27T00:31:37;1999.90;;;999.90;;
29432;SDS011;16405;53.964;13.448;2022-11-27T00:34:04;1999.90;;;999.90;;
29432;SDS011;16405;53.964;13.448;2022-11-27T00:36:33;1999.90;;;999.90;;
29432;SDS011;16405;53.964;13.448;2022-11-27T00:39:07;1999.90;;;999.90;;
29432;SDS011;16405;53.964;13.448;2022-11-27T00:41:34;1999.90;;;999.90;;
29432;SDS011;16405;53.964;13.448;2022-11-27T00:43:59;1999.90;;;999.90;;
29432;SDS011;16405;53.964;13.448;2022-11-27T00:46:33;1999.90;;;999.90;;
29432;SDS011;16405;53.964;13.448;2022-11-27T00:49:02;1999.90;;;999.90;;
29432;SDS011;16405;53.964;13.448;2022-11-27T00:51:29;1999.90;;;999.90;;
29432;SDS011;16405;53.964;13.448;2022-11-27T00:54:04;1999.90;;;999.90;;
29432;SDS011;16405;53.964;13.448;2022-11-27T00:56:32;1999.90;;;999.90;;
29432;SDS011;16405;53.964;13.448;2022-11-27T00:59:05;1999.90;;;999.90;;
29432;SDS011;16405;53.964;13.448;2022-11-27T01:01:33;1999.90;;;999.90;;
29432;SDS011;16405;53.964;13.448;2022-11-27T01:04:13;1999.90;;;999.90;;
29432;SDS011;16405;53.964;13.448;2022-11-27T01:06:40;1999.90;;;999.90;;
29432;SDS011;16405;53.964;13.448;2022-11-27T01:09:14;1999.90;;;999.90;;
29432;SDS011;16405;53.964;13.448;2022-11-27T01:11:40;1999.90;;;999.90;;
29432;SDS011;16405;53.964;13.448;2022-11-27T01:14:09;1999.90;;;999.90;;
29432;SDS011;16405;53.964;13.448;2022-11-27T01:16:41;1999.90;;;999.90;;
29432;SDS011;16405;53.964;13.448;2022-11-27T01:19:08;1999.90;;;999.90;;
29432;SDS011;16405;53.964;13.448;2022-11-27T01:21:35;1999.90;;;999.90;;
29432;SDS011;16405;53.964;13.448;2022-11-27T01:24:02;1999.90;;;999.90;;
29432;SDS011;16405;53.964;13.448;2022-11-27T01:26:36;1999.90;;;999.90;;
29432;SDS011;16405;53.964;13.448;2022-11-27T01:29:02;1999.90;;;999.90;;
29432;SDS011;16405;53.964;13.448;2022-11-27T01:31:35;1999.90;;;999.90;;
29432;SDS011;16405;53.964;13.448;2022-11-27T01:34:07;1999.90;;;999.90;;
29432;SDS011;16405;53.964;13.448;2022-11-27T01:36:47;1999.90;;;999.90;;
29432;SDS011;16405;53.964;13.448;2022-11-27T01:39:14;1999.90;;;999.90;;
29432;SDS011;16405;53.964;13.448;2022-11-27T01:41:50;1999.90;;;999.90;;
29432;SDS011;16405;53.964;13.448;2022-11-27T01:46:56;1999.90;;;999.90;;
29432;SDS011;16405;53.964;13.448;2022-11-27T01:49:43;1999.90;;;999.90;;
29432;SDS011;16405;53.964;13.448;2022-11-27T01:54:58;1999.90;;;999.90;;
29432;SDS011;16405;53.964;13.448;2022-11-27T01:57:43;1999.90;;;999.90;;
29432;SDS011;16405;53.964;13.448;2022-11-27T02:00:13;1999.90;;;999.90;;
29432;SDS011;16405;53.964;13.448;2022-11-27T02:02:42;158.13;;;37.50;;
29432;SDS011;16405;53.964;13.448;2022-11-27T02:05:15;1999.90;;;999.90;;
29432;SDS011;16405;53.964;13.448;2022-11-27T02:07:44;1999.90;;;999.90;;
29432;SDS011;16405;53.964;13.448;2022-11-27T02:10:17;1999.90;;;999.90;;
29432;SDS011;16405;53.964;13.448;2022-11-27T02:12:46;1999.90;;;999.90;;
29432;SDS011;16405;53.964;13.448;2022-11-27T02:15:27;1999.90;;;999.90;;
29432;SDS011;16405;53.964;13.448;2022-11-27T02:30:16;1999.90;;;999.90;;
29432;SDS011;16405;53.964;13.448;2022-11-27T02:33:04;1999.90;;;999.90;;
29432;SDS011;16405;53.964;13.448;2022-11-27T02:35:56;1999.90;;;999.90;;
29432;SDS011;16405;53.964;13.448;2022-11-27T02:38:44;1999.90;;;999.90;;
29432;SDS011;16405;53.964;13.448;2022-11-27T02:41:19;1999.90;;;999.90;;
29432;SDS011;16405;53.964;13.448;2022-11-27T02:43:52;1999.90;;;999.90;;
29432;SDS011;16405;53.964;13.448;2022-11-27T02:46:19;1999.90;;;999.90;;
29432;SDS011;16405;53.964;13.448;2022-11-27T02:48:46;1999.90;;;999.90;;
29432;SDS011;16405;53.964;13.448;2022-11-27T02:51:22;1999.90;;;999.90;;
29432;SDS011;16405;53.964;13.448;2022-11-27T02:54:01;1999.90;;;999.90;;
29432;SDS011;16405;53.964;13.448;2022-11-27T02:59:00;1999.90;;;999.90;;
29432;SDS011;16405;53.964;13.448;2022-11-27T03:01:31;1999.90;;;999.90;;
29432;SDS011;16405;53.964;13.448;2022-11-27T03:04:13;1999.90;;;999.90;;
29432;SDS011;16405;53.964;13.448;2022-11-27T03:06:54;1999.90;;;999.90;;
29432;SDS011;16405;53.964;13.448;2022-11-27T03:09:36;1999.90;;;999.90;;
29432;SDS011;16405;53.964;13.448;2022-11-27T03:12:10;1999.90;;;999.90;;
29432;SDS011;16405;53.964;13.448;2022-11-27T03:14:38;1999.90;;;999.90;;
29432;SDS011;16405;53.964;13.448;2022-11-27T03:22:21;1999.90;;;999.90;;
29432;SDS011;16405;53.964;13.448;2022-11-27T03:24:47;1999.90;;;999.90;;
29432;SDS011;16405;53.964;13.448;2022-11-27T03:27:17;1999.90;;;999.90;;
29432;SDS011;16405;53.964;13.448;2022-11-27T03:29:53;1999.90;;;999.90;;
29432;SDS011;16405;53.964;13.448;2022-11-27T03:32:30;1999.90;;;999.90;;
29432;SDS011;16405;53.964;13.448;2022-11-27T03:34:56;1999.90;;;999.90;;
29432;SDS011;16405;53.964;13.448;2022-11-27T03:37:22;1999.90;;;999.90;;
29432;SDS011;16405;53.964;13.448;2022-11-27T03:39:53;1999.90;;;999.90;;
29432;SDS011;16405;53.964;13.448;2022-11-27T03:45:16;1999.90;;;999.90;;
29432;SDS011;16405;53.964;13.448;2022-11-27T03:57:14;1999.90;;;999.90;;
29432;SDS011;16405;53.964;13.448;2022-11-27T03:59:52;1999.90;;;999.90;;
29432;SDS011;16405;53.964;13.448;2022-11-27T04:02:37;1999.90;;;999.90;;
29432;SDS011;16405;53.964;13.448;2022-11-27T04:05:14;1595.95;;;765.38;;
29432;SDS011;16405;53.964;13.448;2022-11-27T04:07:41;122.97;;;77.25;;
29432;SDS011;16405;53.964;13.448;2022-11-27T04:10:07;175.85;;;28.13;;
29432;SDS011;16405;53.964;13.448;2022-11-27T04:12:40;582.67;;;238.52;;
29432;SDS011;16405;53.964;13.448;2022-11-27T04:15:07;158.95;;;27.75;;
29432;SDS011;16405;53.964;13.448;2022-11-27T04:17:33;154.38;;;29.83;;
29432;SDS011;16405;53.964;13.448;2022-11-27T04:19:59;167.52;;;31.25;;
29432;SDS011;16405;53.964;13.448;2022-11-27T04:22:25;187.05;;;44.88;;
29432;SDS011;16405;53.964;13.448;2022-11-27T04:24:58;1999.90;;;999.90;;
29432;SDS011;16405;53.964;13.448;2022-11-27T04:27:24;1999.90;;;999.90;;
29432;SDS011;16405;53.964;13.448;2022-11-27T04:29:50;1999.90;;;999.90;;
29432;SDS011;16405;53.964;13.448;2022-11-27T04:32:15;1999.90;;;999.90;;
29432;SDS011;16405;53.964;13.448;2022-11-27T04:34:41;1999.90;;;999.90;;
29432;SDS011;16405;53.964;13.448;2022-11-27T04:37:12;1999.90;;;999.90;;
29432;SDS011;16405;53.964;13.448;2022-11-27T04:39:38;1999.90;;;999.90;;
29432;SDS011;16405;53.964;13.448;2022-11-27T04:42:04;1999.90;;;999.90;;
29432;SDS011;16405;53.964;13.448;2022-11-27T04:44:29;1999.90;;;999.90;;
29432;SDS011;16405;53.964;13.448;2022-11-27T04:46:55;1999.90;;;999.90;;
29432;SDS011;16405;53.964;13.448;2022-11-27T04:49:21;1999.90;;;999.90;;
29432;SDS011;16405;53.964;13.448;2022-11-27T04:51:56;1999.90;;;999.90;;
29432;SDS011;16405;53.964;13.448;2022-11-27T04:54:22;1999.90;;;999.90;;
29432;SDS011;16405;53.964;13.448;2022-11-27T04:56:48;1999.90;;;999.90;;
29432;SDS011;16405;53.964;13.448;2022-11-27T04:59:23;1999.90;;;999.90;;
29432;SDS011;16405;53.964;13.448;2022-11-27T05:01:49;1999.90;;;999.90;;
29432;SDS011;16405;53.964;13.448;2022-11-27T05:04:16;1999.90;;;999.90;;
29432;SDS011;16405;53.964;13.448;2022-11-27T05:06:51;11.55;;;10.85;;
29432;SDS011;16405;53.964;13.448;2022-11-27T05:09:17;1.90;;;1.80;;
29432;SDS011;16405;53.964;13.448;2022-11-27T05:11:43;0.10;;;0.10;;
29432;SDS011;16405;53.964;13.448;2022-11-27T05:14:09;0.10;;;0.10;;
29432;SDS011;16405;53.964;13.448;2022-11-27T05:16:48;9.60;;;3.88;;
29432;SDS011;16405;53.964;13.448;2022-11-27T05:19:28;571.15;;;182.73;;
29432;SDS011;16405;53.964;13.448;2022-11-27T05:22:08;1999.90;;;999.90;;
29432;SDS011;16405;53.964;13.448;2022-11-27T05:24:34;1999.90;;;999.90;;
29432;SDS011;16405;53.964;13.448;2022-11-27T05:27:06;1999.90;;;999.90;;
29432;SDS011;16405;53.964;13.448;2022-11-27T05:29:32;0.00;;;0.00;;
29432;SDS011;16405;53.964;13.448;2022-11-27T05:31:58;0.00;;;0.00;;
29432;SDS011;16405;53.964;13.448;2022-11-27T05:34:24;0.00;;;0.00;;
29432;SDS011;16405;53.964;13.448;2022-11-27T05:36:56;264.08;;;40.38;;
29432;SDS011;16405;53.964;13.448;2022-11-27T05:39:22;266.08;;;39.35;;
29432;SDS011;16405;53.964;13.448;2022-11-27T05:41:48;518.30;;;66.85;;
29432;SDS011;16405;53.964;13.448;2022-11-27T05:44:14;274.75;;;42.55;;
29432;SDS011;16405;53.964;13.448;2022-11-27T05:46:40;1999.90;;;999.90;;
29432;SDS011;16405;53.964;13.448;2022-11-27T05:49:13;253.88;;;38.90;;
29432;SDS011;16405;53.964;13.448;2022-11-27T05:51:40;1999.90;;;999.90;;
29432;SDS011;16405;53.964;13.448;2022-11-27T05:54:07;1999.90;;;999.90;;
29432;SDS011;16405;53.964;13.448;2022-11-27T05:56:33;1999.90;;;999.90;;
29432;SDS011;16405;53.964;13.448;2022-11-27T05:59:10;1999.90;;;999.90;;
29432;SDS011;16405;53.964;13.448;2022-11-27T06:01:36;1999.90;;;999.90;;
29432;SDS011;16405;53.964;13.448;2022-11-27T06:04:14;1999.90;;;999.90;;
29432;SDS011;16405;53.964;13.448;2022-11-27T06:06:39;1999.90;;;999.90;;
29432;SDS011;16405;53.964;13.448;2022-11-27T06:09:05;1999.90;;;999.90;;
29432;SDS011;16405;53.964;13.448;2022-11-27T06:11:58;1999.90;;;999.90;;
29432;SDS011;16405;53.964;13.448;2022-11-27T06:14:25;1999.90;;;999.90;;
29432;SDS011;16405;53.964;13.448;2022-11-27T06:17:01;1999.90;;;999.90;;
29432;SDS011;16405;53.964;13.448;2022-11-27T06:19:28;1999.90;;;999.90;;
29432;SDS011;16405;53.964;13.448;2022-11-27T06:22:03;1999.90;;;999.90;;
29432;SDS011;16405;53.964;13.448;2022-11-27T06:24:29;1999.90;;;999.90;;
29432;SDS011;16405;53.964;13.448;2022-11-27T06:26:57;1999.90;;;999.90;;
29432;SDS011;16405;53.964;13.448;2022-11-27T06:29:35;1999.90;;;999.90;;
29432;SDS011;16405;53.964;13.448;2022-11-27T06:32:02;1999.90;;;999.90;;
29432;SDS011;16405;53.964;13.448;2022-11-27T06:34:34;28.55;;;22.77;;
29432;SDS011;16405;53.964;13.448;2022-11-27T06:37:00;6.70;;;6.30;;
29432;SDS011;16405;53.964;13.448;2022-11-27T06:39:25;6.63;;;6.22;;
29432;SDS011;16405;53.964;13.448;2022-11-27T06:41:51;1999.90;;;999.90;;
29432;SDS011;16405;53.964;13.448;2022-11-27T06:44:17;1999.90;;;999.90;;
29432;SDS011;16405;53.964;13.448;2022-11-27T06:46:51;0.75;;;0.75;;
29432;SDS011;16405;53.964;13.448;2022-11-27T06:49:17;0.20;;;0.20;;
29432;SDS011;16405;53.964;13.448;2022-11-27T06:51:45;0.00;;;0.00;;
29432;SDS011;16405;53.964;13.448;2022-11-27T06:54:18;0.00;;;0.00;;
29432;SDS011;16405;53.964;13.448;2022-11-27T06:56:44;0.00;;;0.00;;
29432;SDS011;16405;53.964;13.448;2022-11-27T06:59:10;0.00;;;0.00;;
29432;SDS011;16405;53.964;13.448;2022-11-27T07:01:46;0.00;;;0.00;;
29432;SDS011;16405;53.964;13.448;2022-11-27T07:04:14;0.00;;;0.00;;
29432;SDS011;16405;53.964;13.448;2022-11-27T07:06:40;1999.90;;;999.90;;
29432;SDS011;16405;53.964;13.448;2022-11-27T07:09:12;20.63;;;13.60;;
29432;SDS011;16405;53.964;13.448;2022-11-27T07:11:38;1999.90;;;999.90;;
29432;SDS011;16405;53.964;13.448;2022-11-27T07:14:04;1999.90;;;999.90;;
29432;SDS011;16405;53.964;13.448;2022-11-27T07:16:31;1999.90;;;999.90;;
29432;SDS011;16405;53.964;13.448;2022-11-27T07:19:10;1999.90;;;999.90;;
29432;SDS011;16405;53.964;13.448;2022-11-27T07:21:41;0.20;;;0.20;;
29432;SDS011;16405;53.964;13.448;2022-11-27T07:24:08;0.00;;;0.00;;
29432;SDS011;16405;53.964;13.448;2022-11-27T07:26:34;0.00;;;0.00;;
29432;SDS011;16405;53.964;13.448;2022-11-27T07:29:00;0.00;;;0.00;;
29432;SDS011;16405;53.964;13.448;2022-11-27T07:31:27;0.00;;;0.00;;
29432;SDS011;16405;53.964;13.448;2022-11-27T07:33:56;0.00;;;0.00;;
29432;SDS011;16405;53.964;13.448;2022-11-27T07:36:27;0.00;;;0.00;;
29432;SDS011;16405;53.964;13.448;2022-11-27T07:38:54;0.00;;;0.00;;
29432;SDS011;16405;53.964;13.448;2022-11-27T07:41:22;87.25;;;72.13;;
29432;SDS011;16405;53.964;13.448;2022-11-27T07:43:56;20.92;;;16.45;;
29432;SDS011;16405;53.964;13.448;2022-11-27T07:46:22;0.00;;;0.00;;
29432;SDS011;16405;53.964;13.448;2022-11-27T07:48:49;0.00;;;0.00;;
29432;SDS011;16405;53.964;13.448;2022-11-27T07:51:24;0.10;;;0.10;;
29432;SDS011;16405;53.964;13.448;2022-11-27T07:53:50;29.42;;;2.88;;
29432;SDS011;16405;53.964;13.448;2022-11-27T07:56:16;0.00;;;0.00;;
29432;SDS011;16405;53.964;13.448;2022-11-27T07:58:42;0.00;;;0.00;;
29432;SDS011;16405;53.964;13.448;2022-11-27T08:01:16;0.00;;;0.00;;
29432;SDS011;16405;53.964;13.448;2022-11-27T08:03:43;0.00;;;0.00;;
29432;SDS011;16405;53.964;13.448;2022-11-27T08:06:16;0.00;;;0.00;;
29432;SDS011;16405;53.964;13.448;2022-11-27T08:08:48;0.00;;;0.00;;
29432;SDS011;16405;53.964;13.448;2022-11-27T08:11:24;0.00;;;0.00;;
29432;SDS011;16405;53.964;13.448;2022-11-27T08:14:04;0.00;;;0.00;;
29432;SDS011;16405;53.964;13.448;2022-11-27T08:16:43;0.00;;;0.00;;
29432;SDS011;16405;53.964;13.448;2022-11-27T08:19:09;0.00;;;0.00;;
29432;SDS011;16405;53.964;13.448;2022-11-27T08:21:36;0.00;;;0.00;;
29432;SDS011;16405;53.964;13.448;2022-11-27T08:24:01;0.00;;;0.00;;
29432;SDS011;16405;53.964;13.448;2022-11-27T08:26:33;0.00;;;0.00;;
29432;SDS011;16405;53.964;13.448;2022-11-27T08:28:59;0.00;;;0.00;;
29432;SDS011;16405;53.964;13.448;2022-11-27T08:31:25;0.00;;;0.00;;
29432;SDS011;16405;53.964;13.448;2022-11-27T08:33:51;0.00;;;0.00;;
29432;SDS011;16405;53.964;13.448;2022-11-27T08:36:17;0.00;;;0.00;;
29432;SDS011;16405;53.964;13.448;2022-11-27T08:38:50;0.00;;;0.00;;
29432;SDS011;16405;53.964;13.448;2022-11-27T08:41:16;0.00;;;0.00;;
29432;SDS011;16405;53.964;13.448;2022-11-27T08:43:42;0.00;;;0.00;;
29432;SDS011;16405;53.964;13.448;2022-11-27T08:46:08;0.00;;;0.00;;
29432;SDS011;16405;53.964;13.448;2022-11-27T08:48:35;0.00;;;0.00;;
29432;SDS011;16405;53.964;13.448;2022-11-27T08:51:07;0.00;;;0.00;;
29432;SDS011;16405;53.964;13.448;2022-11-27T08:53:36;0.00;;;0.00;;
29432;SDS011;16405;53.964;13.448;2022-11-27T08:56:19;0.00;;;0.00;;
29432;SDS011;16405;53.964;13.448;2022-11-27T08:58:51;0.00;;;0.00;;
29432;SDS011;16405;53.964;13.448;2022-11-27T09:01:27;0.00;;;0.00;;
29432;SDS011;16405;53.964;13.448;2022-11-27T09:03:55;0.00;;;0.00;;
29432;SDS011;16405;53.964;13.448;2022-11-27T09:06:23;0.00;;;0.00;;
29432;SDS011;16405;53.964;13.448;2022-11-27T09:09:00;0.00;;;0.00;;
29432;SDS011;16405;53.964;13.448;2022-11-27T09:11:29;0.00;;;0.00;;
29432;SDS011;16405;53.964;13.448;2022-11-27T09:14:00;0.00;;;0.00;;
29432;SDS011;16405;53.964;13.448;2022-11-27T09:16:28;0.00;;;0.00;;
29432;SDS011;16405;53.964;13.448;2022-11-27T09:18:55;0.00;;;0.00;;
29432;SDS011;16405;53.964;13.448;2022-11-27T09:21:22;0.00;;;0.00;;
29432;SDS011;16405;53.964;13.448;2022-11-27T09:24:00;0.00;;;0.00;;
29432;SDS011;16405;53.964;13.448;2022-11-27T09:26:29;0.00;;;0.00;;
29432;SDS011;16405;53.964;13.448;2022-11-27T09:29:03;0.00;;;0.00;;
29432;SDS011;16405;53.964;13.448;2022-11-27T09:31:37;0.00;;;0.00;;
29432;SDS011;16405;53.964;13.448;2022-11-27T09:34:06;0.00;;;0.00;;
29432;SDS011;16405;53.964;13.448;2022-11-27T09:36:37;0.00;;;0.00;;
29432;SDS011;16405;53.964;13.448;2022-11-27T09:39:06;0.00;;;0.00;;
29432;SDS011;16405;53.964;13.448;2022-11-27T09:41:41;0.00;;;0.00;;
29432;SDS011;16405;53.964;13.448;2022-11-27T09:44:45;0.00;;;0.00;;
29432;SDS011;16405;53.964;13.448;2022-11-27T09:50:25;0.00;;;0.00;;
29432;SDS011;16405;53.964;13.448;2022-11-27T09:55:57;0.00;;;0.00;;
29432;SDS011;16405;53.964;13.448;2022-11-27T10:01:29;0.00;;;0.00;;
29432;SDS011;16405;53.964;13.448;2022-11-27T10:04:01;0.00;;;0.00;;
29432;SDS011;16405;53.964;13.448;2022-11-27T10:27:29;0.00;;;0.00;;
29432;SDS011;16405;53.964;13.448;2022-11-27T10:30:58;0.00;;;0.00;;
29432;SDS011;16405;53.964;13.448;2022-11-27T10:33:56;0.00;;;0.00;;
29432;SDS011;16405;53.964;13.448;2022-11-27T10:36:34;0.00;;;0.00;;
29432;SDS011;16405;53.964;13.448;2022-11-27T10:39:12;0.00;;;0.00;;
29432;SDS011;16405;53.964;13.448;2022-11-27T10:42:07;0.00;;;0.00;;
29432;SDS011;16405;53.964;13.448;2022-11-27T10:44:46;0.00;;;0.00;;
29432;SDS011;16405;53.964;13.448;2022-11-27T10:47:22;0.00;;;0.00;;
29432;SDS011;16405;53.964;13.448;2022-11-27T10:50:01;0.00;;;0.00;;
29432;SDS011;16405;53.964;13.448;2022-11-27T10:52:50;0.00;;;0.00;;
29432;SDS011;16405;53.964;13.448;2022-11-27T10:55:42;0.00;;;0.00;;
29432;SDS011;16405;53.964;13.448;2022-11-27T11:01:46;0.00;;;0.00;;
29432;SDS011;16405;53.964;13.448;2022-11-27T11:04:18;0.00;;;0.00;;
29432;SDS011;16405;53.964;13.448;2022-11-27T11:07:14;0.00;;;0.00;;
29432;SDS011;16405;53.964;13.448;2022-11-27T11:13:32;0.00;;;0.00;;
29432;SDS011;16405;53.964;13.448;2022-11-27T11:16:21;0.00;;;0.00;;
29432;SDS011;16405;53.964;13.448;2022-11-27T11:19:19;0.00;;;0.00;;
29432;SDS011;16405;53.964;13.448;2022-11-27T11:21:56;0.00;;;0.00;;
29432;SDS011;16405;53.964;13.448;2022-11-27T11:24:46;0.00;;;0.00;;
29432;SDS011;16405;53.964;13.448;2022-11-27T11:27:27;0.00;;;0.00;;
29432;SDS011;16405;53.964;13.448;2022-11-27T11:30:02;0.00;;;0.00;;
29432;SDS011;16405;53.964;13.448;2022-11-27T11:33:01;0.00;;;0.00;;
29432;SDS011;16405;53.964;13.448;2022-11-27T11:35:37;0.00;;;0.00;;
29432;SDS011;16405;53.964;13.448;2022-11-27T11:38:03;0.00;;;0.00;;
29432;SDS011;16405;53.964;13.448;2022-11-27T11:40:55;0.00;;;0.00;;
29432;SDS011;16405;53.964;13.448;2022-11-27T11:43:26;0.00;;;0.00;;
29432;SDS011;16405;53.964;13.448;2022-11-27T11:46:14;0.00;;;0.00;;
29432;SDS011;16405;53.964;13.448;2022-11-27T11:48:51;0.00;;;0.00;;
29432;SDS011;16405;53.964;13.448;2022-11-27T11:51:28;0.00;;;0.00;;
29432;SDS011;16405;53.964;13.448;2022-11-27T12:00:51;0.00;;;0.00;;
29432;SDS011;16405;53.964;13.448;2022-11-27T12:04:15;0.00;;;0.00;;
29432;SDS011;16405;53.964;13.448;2022-11-27T12:07:33;0.00;;;0.00;;
29432;SDS011;16405;53.964;13.448;2022-11-27T12:16:59;0.00;;;0.00;;
29432;SDS011;16405;53.964;13.448;2022-11-27T12:22:51;0.00;;;0.00;;
29432;SDS011;16405;53.964;13.448;2022-11-27T12:25:56;0.00;;;0.00;;
29432;SDS011;16405;53.964;13.448;2022-11-27T12:29:22;0.00;;;0.00;;
29432;SDS011;16405;53.964;13.448;2022-11-27T12:44:46;0.00;;;0.00;;
29432;SDS011;16405;53.964;13.448;2022-11-27T12:55:59;0.00;;;0.00;;
29432;SDS011;16405;53.964;13.448;2022-11-27T12:58:41;0.00;;;0.00;;
29432;SDS011;16405;53.964;13.448;2022-11-27T13:01:14;0.00;;;0.00;;
29432;SDS011;16405;53.964;13.448;2022-11-27T13:06:45;0.00;;;0.00;;
29432;SDS011;16405;53.964;13.448;2022-11-27T13:10:08;0.00;;;0.00;;
29432;SDS011;16405;53.964;13.448;2022-11-27T13:12:50;0.00;;;0.00;;
29432;SDS011;16405;53.964;13.448;2022-11-27T13:15:53;0.00;;;0.00;;
29432;SDS011;16405;53.964;13.448;2022-11-27T13:18:45;0.00;;;0.00;;
29432;SDS011;16405;53.964;13.448;2022-11-27T13:21:30;0.00;;;0.00;;
29432;SDS011;16405;53.964;13.448;2022-11-27T13:23:59;0.00;;;0.00;;
29432;SDS011;16405;53.964;13.448;2022-11-27T13:26:29;0.00;;;0.00;;
29432;SDS011;16405;53.964;13.448;2022-11-27T13:29:06;0.00;;;0.00;;
29432;SDS011;16405;53.964;13.448;2022-11-27T13:31:51;0.00;;;0.00;;
29432;SDS011;16405;53.964;13.448;2022-11-27T13:34:22;0.00;;;0.00;;
29432;SDS011;16405;53.964;13.448;2022-11-27T13:36:59;0.00;;;0.00;;
29432;SDS011;16405;53.964;13.448;2022-11-27T13:39:29;0.00;;;0.00;;
29432;SDS011;16405;53.964;13.448;2022-11-27T13:44:44;0.00;;;0.00;;
29432;SDS011;16405;53.964;13.448;2022-11-27T13:47:39;0.00;;;0.00;;
29432;SDS011;16405;53.964;13.448;2022-11-27T13:50:08;0.00;;;0.00;;
29432;SDS011;16405;53.964;13.448;2022-11-27T13:55:30;0.00;;;0.00;;
29432;SDS011;16405;53.964;13.448;2022-11-27T13:58:04;0.00;;;0.00;;
29432;SDS011;16405;53.964;13.448;2022-11-27T14:03:19;0.00;;;0.00;;
29432;SDS011;16405;53.964;13.448;2022-11-27T14:05:51;0.00;;;0.00;;
29432;SDS011;16405;53.964;13.448;2022-11-27T14:08:19;0.00;;;0.00;;
29432;SDS011;16405;53.964;13.448;2022-11-27T14:10:53;0.00;;;0.00;;
29432;SDS011;16405;53.964;13.448;2022-11-27T14:13:34;0.00;;;0.00;;
29432;SDS011;16405;53.964;13.448;2022-11-27T14:16:30;0.00;;;0.00;;
29432;SDS011;16405;53.964;13.448;2022-11-27T14:19:20;0.00;;;0.00;;
29432;SDS011;16405;53.964;13.448;2022-11-27T14:21:53;0.00;;;0.00;;
29432;SDS011;16405;53.964;13.448;2022-11-27T14:24:25;0.00;;;0.00;;
29432;SDS011;16405;53.964;13.448;2022-11-27T14:26:53;0.00;;;0.00;;
29432;SDS011;16405;53.964;13.448;2022-11-27T14:29:20;0.00;;;0.00;;
29432;SDS011;16405;53.964;13.448;2022-11-27T14:31:59;0.00;;;0.00;;
29432;SDS011;16405;53.964;13.448;2022-11-27T14:34:35;0.00;;;0.00;;
29432;SDS011;16405;53.964;13.448;2022-11-27T14:37:01;0.00;;;0.00;;
29432;SDS011;16405;53.964;13.448;2022-11-27T14:39:28;0.00;;;0.00;;
29432;SDS011;16405;53.964;13.448;2022-11-27T14:42:03;0.00;;;0.00;;
29432;SDS011;16405;53.964;13.448;2022-11-27T14:45:03;0.00;;;0.00;;
29432;SDS011;16405;53.964;13.448;2022-11-27T14:47:37;0.00;;;0.00;;
29432;SDS011;16405;53.964;13.448;2022-11-27T14:50:09;0.00;;;0.00;;
29432;SDS011;16405;53.964;13.448;2022-11-27T14:52:41;0.00;;;0.00;;
29432;SDS011;16405;53.964;13.448;2022-11-27T14:55:14;0.00;;;0.00;;
29432;SDS011;16405;53.964;13.448;2022-11-27T14:57:46;0.00;;;0.00;;
29432;SDS011;16405;53.964;13.448;2022-11-27T15:00:21;0.00;;;0.00;;
29432;SDS011;16405;53.964;13.448;2022-11-27T15:02:51;0.00;;;0.00;;
29432;SDS011;16405;53.964;13.448;2022-11-27T15:05:22;0.00;;;0.00;;
29432;SDS011;16405;53.964;13.448;2022-11-27T15:07:55;0.00;;;0.00;;
29432;SDS011;16405;53.964;13.448;2022-11-27T15:13:02;0.00;;;0.00;;
29432;SDS011;16405;53.964;13.448;2022-11-27T15:15:39;0.00;;;0.00;;
29432;SDS011;16405;53.964;13.448;2022-11-27T15:18:08;0.00;;;0.00;;
29432;SDS011;16405;53.964;13.448;2022-11-27T15:20:44;0.00;;;0.00;;
29432;SDS011;16405;53.964;13.448;2022-11-27T15:23:34;0.00;;;0.00;;
29432;SDS011;16405;53.964;13.448;2022-11-27T15:28:49;0.00;;;0.00;;
29432;SDS011;16405;53.964;13.448;2022-11-27T15:31:29;0.00;;;0.00;;
29432;SDS011;16405;53.964;13.448;2022-11-27T15:36:42;0.00;;;0.00;;
29432;SDS011;16405;53.964;13.448;2022-11-27T15:39:16;0.00;;;0.00;;
29432;SDS011;16405;53.964;13.448;2022-11-27T15:41:57;0.00;;;0.00;;
29432;SDS011;16405;53.964;13.448;2022-11-27T15:44:31;0.00;;;0.00;;
29432;SDS011;16405;53.964;13.448;2022-11-27T15:46:58;0.00;;;0.00;;
29432;SDS011;16405;53.964;13.448;2022-11-27T15:49:30;0.00;;;0.00;;
29432;SDS011;16405;53.964;13.448;2022-11-27T15:51:57;0.00;;;0.00;;
29432;SDS011;16405;53.964;13.448;2022-11-27T15:54:23;0.00;;;0.00;;
29432;SDS011;16405;53.964;13.448;2022-11-27T15:56:49;0.00;;;0.00;;
29432;SDS011;16405;53.964;13.448;2022-11-27T15:59:23;0.00;;;0.00;;
29432;SDS011;16405;53.964;13.448;2022-11-27T16:01:51;0.00;;;0.00;;
29432;SDS011;16405;53.964;13.448;2022-11-27T16:04:17;0.00;;;0.00;;
29432;SDS011;16405;53.964;13.448;2022-11-27T16:06:48;0.00;;;0.00;;
29432;SDS011;16405;53.964;13.448;2022-11-27T16:09:14;0.00;;;0.00;;
29432;SDS011;16405;53.964;13.448;2022-11-27T16:11:40;0.00;;;0.00;;
29432;SDS011;16405;53.964;13.448;2022-11-27T16:14:06;0.00;;;0.00;;
29432;SDS011;16405;53.964;13.448;2022-11-27T16:16:32;0.00;;;0.00;;
29432;SDS011;16405;53.964;13.448;2022-11-27T16:19:02;0.00;;;0.00;;
29432;SDS011;16405;53.964;13.448;2022-11-27T16:21:30;0.00;;;0.00;;
29432;SDS011;16405;53.964;13.448;2022-11-27T16:23:59;0.00;;;0.00;;
29432;SDS011;16405;53.964;13.448;2022-11-27T16:29:04;0.00;;;0.00;;
29432;SDS011;16405;53.964;13.448;2022-11-27T16:31:38;0.00;;;0.00;;
29432;SDS011;16405;53.964;13.448;2022-11-27T16:34:22;0.00;;;0.00;;
29432;SDS011;16405;53.964;13.448;2022-11-27T16:36:48;0.00;;;0.00;;
29432;SDS011;16405;53.964;13.448;2022-11-27T16:39:23;0.00;;;0.00;;
29432;SDS011;16405;53.964;13.448;2022-11-27T16:41:49;0.00;;;0.00;;
29432;SDS011;16405;53.964;13.448;2022-11-27T16:44:15;0.00;;;0.00;;
29432;SDS011;16405;53.964;13.448;2022-11-27T16:46:41;0.00;;;0.00;;
29432;SDS011;16405;53.964;13.448;2022-11-27T16:49:11;0.00;;;0.00;;
29432;SDS011;16405;53.964;13.448;2022-11-27T16:51:42;0.00;;;0.00;;
29432;SDS011;16405;53.964;13.448;2022-11-27T16:54:16;0.00;;;0.00;;
29432;SDS011;16405;53.964;13.448;2022-11-27T16:56:42;0.00;;;0.00;;
29432;SDS011;16405;53.964;13.448;2022-11-27T16:59:12;0.00;;;0.00;;